Time;durP1;ratioP1;P1;durP2;ratioP2;P2;SDS_P1;SDS_P2;PMS_P1;PMS_P2;Temp;Humidity;BMP_temperature;BMP_pressure;BME280_temperature;BME280_humidity;BME280_pressure;Samples;Min_cycle;Max_cycle;Signal;HPM_P1;HPM_P2
2021/03/20 00:00:16;;;;;;;3.97;3.57;;;5.80;86.00;;;;;;5032432;28;20275;-77
2021/03/20 00:02:42;;;;;;;3.75;3.45;;;5.80;86.40;;;;;;5035336;28;20597;-77
2021/03/20 00:05:08;;;;;;;3.27;2.97;;;5.80;86.50;;;;;;5032717;28;20539;-77
2021/03/20 00:07:34;;;;;;;4.10;3.70;;;5.90;86.90;;;;;;5014329;28;20572;-74
2021/03/20 00:10:00;;;;;;;4.10;3.70;;;5.90;87.00;;;;;;5014716;28;20168;-75
2021/03/20 00:12:27;;;;;;;4.93;4.10;;;6.00;87.20;;;;;;5030809;28;20355;-75
2021/03/20 00:14:53;;;;;;;3.90;3.60;;;6.00;87.40;;;;;;5032063;28;20162;-75
2021/03/20 00:17:18;;;;;;;5.33;3.90;;;6.00;87.60;;;;;;5030372;28;20531;-75
2021/03/20 00:19:44;;;;;;;4.50;3.90;;;6.10;87.60;;;;;;5032016;28;20978;-75
2021/03/20 00:22:10;;;;;;;4.00;3.70;;;6.00;87.50;;;;;;5031865;28;20603;-74
2021/03/20 00:24:39;;;;;;;3.85;3.25;;;6.10;87.60;;;;;;5014738;28;20622;-74
2021/03/20 00:27:05;;;;;;;3.83;3.42;;;6.00;87.50;;;;;;5014035;28;20176;-75
2021/03/20 00:29:30;;;;;;;4.73;4.23;;;6.00;87.50;;;;;;5032079;28;20158;-74
2021/03/20 00:31:56;;;;;;;4.00;3.60;;;6.00;87.40;;;;;;5031707;28;20592;-75
2021/03/20 00:34:22;;;;;;;3.60;3.30;;;5.90;87.50;;;;;;5031947;28;20169;-75
2021/03/20 00:36:48;;;;;;;3.93;3.50;;;5.90;87.90;;;;;;5031337;28;20256;-75
2021/03/20 00:39:14;;;;;;;3.83;3.42;;;5.80;88.00;;;;;;5014623;28;20169;-75
2021/03/20 00:41:40;;;;;;;3.38;3.08;;;5.80;87.90;;;;;;5000465;28;20197;-75
2021/03/20 00:44:06;;;;;;;4.50;3.70;;;5.70;88.10;;;;;;5031521;28;20657;-75
2021/03/20 00:46:33;;;;;;;3.80;3.50;;;5.70;87.90;;;;;;5031393;28;20549;-75
2021/03/20 00:48:58;;;;;;;3.67;3.35;;;5.60;88.20;;;;;;5014134;28;20169;-75
2021/03/20 00:51:24;;;;;;;4.37;3.23;;;5.60;88.60;;;;;;5031581;28;20186;-75
2021/03/20 00:53:50;;;;;;;3.60;3.30;;;5.50;89.10;;;;;;5014043;28;20561;-75
2021/03/20 00:56:16;;;;;;;3.50;3.20;;;5.50;89.30;;;;;;5013617;28;20617;-76
2021/03/20 00:58:42;;;;;;;3.30;3.00;;;5.40;90.30;;;;;;5031553;28;20585;-75
2021/03/20 01:01:14;;;;;;;2.93;2.73;;;5.30;90.10;;;;;;5013854;28;20600;-75
2021/03/20 01:03:41;;;;;;;3.92;3.63;;;5.30;90.20;;;;;;5013967;28;20608;-75
2021/03/20 01:06:16;;;;;;;3.58;3.15;;;5.30;90.10;;;;;;5013741;28;20162;-76
2021/03/20 01:08:42;;;;;;;3.53;2.83;;;5.20;90.30;;;;;;5013701;28;20183;-76
2021/03/20 01:11:09;;;;;;;3.57;3.27;;;5.20;90.10;;;;;;5013588;28;20201;-76
2021/03/20 01:13:34;;;;;;;3.38;2.60;;;5.20;90.30;;;;;;5014091;28;20604;-76
2021/03/20 01:16:00;;;;;;;3.37;3.07;;;5.10;90.30;;;;;;5034657;28;20681;-76
2021/03/20 01:18:26;;;;;;;3.03;2.83;;;5.10;90.50;;;;;;5040266;28;20174;-76
2021/03/20 01:20:53;;;;;;;3.10;2.63;;;5.00;90.50;;;;;;5017723;28;20198;-75
2021/03/20 01:23:19;;;;;;;3.30;3.00;;;5.00;90.60;;;;;;5035337;28;20608;-75
2021/03/20 01:25:44;;;;;;;5.53;4.15;;;5.00;90.70;;;;;;5017454;28;20158;-75
2021/03/20 01:28:10;;;;;;;2.83;2.63;;;4.90;91.00;;;;;;5034780;28;20166;-75
2021/03/20 01:30:39;;;;;;;5.13;3.90;;;4.90;91.10;;;;;;5035148;28;20566;-76
2021/03/20 01:33:05;;;;;;;4.13;3.10;;;4.90;91.30;;;;;;5036277;28;20564;-80
2021/03/20 01:35:32;;;;;;;3.90;3.47;;;4.90;91.20;;;;;;5042663;28;20173;-80
2021/03/20 01:37:59;;;;;;;4.00;3.70;;;4.80;91.90;;;;;;5023770;28;20166;-82
2021/03/20 01:40:37;;;;;;;4.45;3.60;;;4.80;92.10;;;;;;5023833;28;20185;-81
2021/03/20 01:43:04;;;;;;;4.10;3.72;;;4.80;92.20;;;;;;5022302;28;20180;-80
2021/03/20 01:45:32;;;;;;;3.13;2.75;;;4.80;92.10;;;;;;5025434;28;20281;-81
2021/03/20 01:48:12;;;;;;;3.22;2.85;;;4.80;92.30;;;;;;5047339;28;20170;-80
2021/03/20 01:50:58;;;;;;;4.38;3.83;;;4.80;92.40;;;;;;5048461;28;20177;-80
2021/03/20 01:53:50;;;;;;;3.50;3.20;;;4.80;92.60;;;;;;5046158;28;20798;-80
2021/03/20 01:56:19;;;;;;;3.55;3.25;;;4.80;92.80;;;;;;5046452;28;20158;-80
2021/03/20 01:58:47;;;;;;;3.42;3.15;;;4.80;92.80;;;;;;5029594;28;20637;-80
2021/03/20 02:01:33;;;;;;;3.70;2.88;;;4.80;92.60;;;;;;5048076;28;20204;-80
2021/03/20 02:04:02;;;;;;;2.97;2.78;;;4.70;92.90;;;;;;5042554;28;20213;-80
2021/03/20 02:06:28;;;;;;;3.28;3.08;;;4.70;92.70;;;;;;5034044;28;20245;-79
2021/03/20 02:08:58;;;;;;;3.45;3.10;;;4.70;92.60;;;;;;5058206;28;20154;-79
2021/03/20 02:11:29;;;;;;;3.35;2.88;;;4.70;92.90;;;;;;5040515;28;20253;-79
2021/03/20 02:14:00;;;;;;;4.20;3.80;;;4.60;92.80;;;;;;5056179;28;20569;-81
2021/03/20 02:16:38;;;;;;;3.10;2.90;;;4.60;93.20;;;;;;5036610;28;20268;-80
2021/03/20 02:19:19;;;;;;;3.85;3.47;;;4.50;93.20;;;;;;5056975;28;20181;-80
2021/03/20 02:21:50;;;;;;;3.78;3.47;;;4.50;93.00;;;;;;5041668;28;20609;-80
2021/03/20 02:24:49;;;;;;;3.90;3.60;;;4.50;93.30;;;;;;5058008;28;20269;-80
2021/03/20 02:27:34;;;;;;;3.60;3.30;;;4.40;93.70;;;;;;5055429;28;20146;-80
2021/03/20 02:30:04;;;;;;;3.70;3.30;;;4.40;93.90;;;;;;5031256;28;20166;-79
2021/03/20 02:33:08;;;;;;;5.20;3.35;;;4.40;93.70;;;;;;5051576;28;20228;-80
2021/03/20 02:35:49;;;;;;;4.10;3.58;;;4.30;93.90;;;;;;5038483;28;20170;-79
2021/03/20 02:38:26;;;;;;;3.70;3.45;;;4.30;93.50;;;;;;5058791;28;20715;-80
2021/03/20 02:40:57;;;;;;;4.10;3.70;;;4.30;93.80;;;;;;5058067;28;20193;-79
2021/03/20 02:43:51;;;;;;;3.85;3.33;;;4.20;93.90;;;;;;5055021;28;20260;-79
2021/03/20 02:46:36;;;;;;;4.13;3.80;;;4.20;94.40;;;;;;5036955;28;20176;-79
2021/03/20 02:49:12;;;;;;;4.05;3.70;;;4.20;94.20;;;;;;5053784;28;20166;-79
2021/03/20 02:51:55;;;;;;;3.72;3.42;;;4.20;94.30;;;;;;5020139;28;20244;-80
2021/03/20 02:54:33;;;;;;;4.75;4.35;;;4.10;94.20;;;;;;5055148;28;20220;-80
2021/03/20 02:57:11;;;;;;;4.82;4.43;;;4.10;94.40;;;;;;5055144;28;20182;-79
2021/03/20 02:59:45;;;;;;;5.35;4.85;;;4.00;94.10;;;;;;5053778;28;20186;-80
2021/03/20 03:02:14;;;;;;;4.03;3.72;;;4.00;94.30;;;;;;5051403;28;20190;-80
2021/03/20 03:05:04;;;;;;;5.90;5.30;;;4.00;94.50;;;;;;5032262;28;20247;-79
2021/03/20 03:07:38;;;;;;;4.75;4.25;;;4.00;94.60;;;;;;5024364;28;20203;-79
2021/03/20 03:10:26;;;;;;;4.40;4.00;;;3.90;94.70;;;;;;5037099;28;20257;-79
2021/03/20 03:12:57;;;;;;;6.00;4.00;;;3.90;95.20;;;;;;5051441;28;20197;-79
2021/03/20 03:15:28;;;;;;;5.50;3.65;;;3.90;95.10;;;;;;5052401;28;20684;-79
2021/03/20 03:18:05;;;;;;;4.45;4.05;;;3.90;95.40;;;;;;5048803;28;20169;-80
2021/03/20 03:20:42;;;;;;;4.78;4.28;;;3.80;95.50;;;;;;5039059;28;20200;-80
2021/03/20 03:23:13;;;;;;;4.40;4.00;;;3.80;95.70;;;;;;5057349;28;20150;-80
2021/03/20 03:25:43;;;;;;;4.15;3.75;;;3.70;95.40;;;;;;5055244;28;20229;-80
2021/03/20 03:28:13;;;;;;;3.78;3.47;;;3.70;95.80;;;;;;5034877;28;20174;-80
2021/03/20 03:30:39;;;;;;;4.00;3.65;;;3.70;96.00;;;;;;5034011;28;20229;-80
2021/03/20 03:33:11;;;;;;;3.80;2.93;;;3.70;95.80;;;;;;5052508;28;20177;-80
2021/03/20 03:35:44;;;;;;;4.20;3.80;;;3.70;96.00;;;;;;5034796;28;20580;-80
2021/03/20 03:38:39;;;;;;;4.15;3.85;;;3.60;96.40;;;;;;5034141;28;20224;-80
2021/03/20 03:41:19;;;;;;;4.47;4.07;;;3.60;96.90;;;;;;5052828;28;20221;-80
2021/03/20 03:43:45;;;;;;;5.25;4.88;;;3.60;97.10;;;;;;5048518;28;20705;-80
2021/03/20 03:46:12;;;;;;;5.10;4.67;;;3.50;96.10;;;;;;5046012;28;20200;-80
2021/03/20 03:48:38;;;;;;;5.25;4.75;;;3.50;96.30;;;;;;5046797;28;20238;-80
2021/03/20 03:51:17;;;;;;;5.28;4.78;;;3.50;96.40;;;;;;5043180;28;20190;-80
2021/03/20 03:53:43;;;;;;;4.82;4.32;;;3.50;96.90;;;;;;5023752;28;20280;-80
2021/03/20 03:56:21;;;;;;;4.40;4.10;;;3.40;96.70;;;;;;5021209;28;20875;-80
2021/03/20 03:59:19;;;;;;;5.75;5.30;;;3.40;97.00;;;;;;5001472;28;20178;-80
2021/03/20 04:02:27;;;;;;;4.63;4.22;;;3.40;97.70;;;;;;5035234;28;20185;-79
2021/03/20 04:05:08;;;;;;;3.70;3.40;;;3.40;96.90;;;;;;5000101;28;20203;-80
2021/03/20 04:08:02;;;;;;;3.80;3.17;;;3.30;97.00;;;;;;5052751;28;20154;-80
2021/03/20 04:10:41;;;;;;;3.95;2.80;;;3.30;97.10;;;;;;5048023;28;20253;-80
2021/03/20 04:13:31;;;;;;;3.25;2.60;;;3.30;97.10;;;;;;5042016;28;20173;-79
2021/03/20 04:16:15;;;;;;;3.78;2.63;;;3.30;97.50;;;;;;5036347;28;20170;-79
2021/03/20 04:19:05;;;;;;;2.60;2.40;;;3.30;97.20;;;;;;5033071;28;20170;-78
2021/03/20 04:21:34;;;;;;;2.35;1.98;;;3.30;97.10;;;;;;5032753;28;20232;-79
2021/03/20 04:24:21;;;;;;;3.20;2.13;;;3.30;97.10;;;;;;5021389;28;20251;-79
2021/03/20 04:26:57;;;;;;;3.00;2.50;;;3.30;97.20;;;;;;5012939;28;20177;-80
2021/03/20 04:29:41;;;;;;;2.55;2.28;;;3.30;97.30;;;;;;5027105;28;20172;-79
2021/03/20 04:32:23;;;;;;;2.10;1.90;;;3.40;97.40;;;;;;5033928;28;20197;-79
2021/03/20 04:35:18;;;;;;;2.63;2.10;;;3.40;97.50;;;;;;5025906;28;20186;-79
2021/03/20 04:37:47;;;;;;;2.65;1.92;;;3.50;97.60;;;;;;5029580;28;20201;-79
2021/03/20 04:40:50;;;;;;;3.95;2.15;;;3.50;97.50;;;;;;5017020;28;20537;-79
2021/03/20 04:43:20;;;;;;;3.15;2.50;;;3.50;97.50;;;;;;5025907;28;20253;-79
2021/03/20 04:45:53;;;;;;;2.47;1.65;;;3.50;97.40;;;;;;5053010;28;20735;-80
2021/03/20 04:48:25;;;;;;;2.47;2.10;;;3.60;97.40;;;;;;5052347;28;20185;-79
2021/03/20 04:51:00;;;;;;;1.75;1.40;;;3.60;97.60;;;;;;5029018;28;20221;-79
2021/03/20 04:53:27;;;;;;;2.10;1.77;;;3.60;97.60;;;;;;4992909;28;20178;-79
2021/03/20 04:56:00;;;;;;;2.00;1.55;;;3.60;97.30;;;;;;5009576;28;20178;-80
2021/03/20 04:58:42;;;;;;;1.73;1.50;;;3.60;97.40;;;;;;4984678;28;20670;-79
2021/03/20 05:01:43;;;;;;;2.75;2.25;;;3.50;97.50;;;;;;5010788;28;21159;-79
2021/03/20 05:04:24;;;;;;;1.88;1.35;;;3.50;97.50;;;;;;5013324;28;20202;-79
2021/03/20 05:06:51;;;;;;;3.75;2.00;;;3.50;97.10;;;;;;4994875;28;20182;-79
2021/03/20 05:09:23;;;;;;;1.70;1.20;;;3.50;97.10;;;;;;4995323;28;20175;-80
2021/03/20 05:12:00;;;;;;;3.17;1.60;;;3.40;97.20;;;;;;5011271;28;20678;-80
2021/03/20 05:14:46;;;;;;;1.73;1.63;;;3.40;97.10;;;;;;5011020;28;20182;-79
2021/03/20 05:17:16;;;;;;;1.70;1.25;;;3.40;97.20;;;;;;5010033;28;20178;-80
2021/03/20 05:19:43;;;;;;;2.30;1.60;;;3.30;97.40;;;;;;5007654;28;20244;-80
2021/03/20 05:22:24;;;;;;;1.50;1.35;;;3.30;97.10;;;;;;5003468;28;20197;-80
2021/03/20 05:24:51;;;;;;;2.13;1.40;;;3.30;97.10;;;;;;5006888;28;20206;-80
2021/03/20 05:27:21;;;;;;;2.00;1.60;;;3.30;97.00;;;;;;4984322;28;20237;-80
2021/03/20 05:29:48;;;;;;;2.03;1.50;;;3.20;97.10;;;;;;5005958;28;20175;-80
2021/03/20 05:32:17;;;;;;;2.53;1.63;;;3.20;97.10;;;;;;4988674;28;20195;-80
2021/03/20 05:34:44;;;;;;;1.70;1.35;;;3.20;97.10;;;;;;5003330;28;20186;-80
2021/03/20 05:37:19;;;;;;;2.55;1.60;;;3.20;97.00;;;;;;5002734;28;20194;-80
2021/03/20 05:39:45;;;;;;;2.45;1.70;;;3.20;97.10;;;;;;5011819;28;20183;-80
2021/03/20 05:42:48;;;;;;;1.90;1.70;;;3.10;97.00;;;;;;5021309;28;20202;-79
2021/03/20 05:45:31;;;;;;;5.10;2.30;;;3.10;97.10;;;;;;5047796;28;20197;-80
2021/03/20 05:48:11;;;;;;;2.67;1.30;;;3.10;97.00;;;;;;5017596;28;20527;-81
2021/03/20 05:50:36;;;;;;;4.03;1.40;;;3.00;97.20;;;;;;5024428;28;20170;-80
2021/03/20 05:53:28;;;;;;;3.55;1.30;;;3.00;97.00;;;;;;5036155;28;20188;-80
2021/03/20 05:55:56;;;;;;;4.95;2.00;;;3.00;97.10;;;;;;5054079;28;20182;-80
2021/03/20 05:58:40;;;;;;;2.38;1.50;;;3.00;97.10;;;;;;5036081;28;20185;-79
2021/03/20 06:01:28;;;;;;;2.03;1.33;;;3.00;97.30;;;;;;5031691;28;20217;-79
2021/03/20 06:04:27;;;;;;;1.42;1.15;;;3.00;97.30;;;;;;5053998;28;20293;-79
2021/03/20 06:07:25;;;;;;;1.92;1.30;;;3.00;97.50;;;;;;5031693;28;20281;-79
2021/03/20 06:10:10;;;;;;;2.28;1.60;;;3.10;97.80;;;;;;5025584;28;20189;-79
2021/03/20 06:12:48;;;;;;;2.42;1.50;;;3.20;97.80;;;;;;5028832;28;20193;-79
2021/03/20 06:15:20;;;;;;;2.10;1.60;;;3.20;97.80;;;;;;5029535;28;20208;-79
2021/03/20 06:18:30;;;;;;;3.00;2.42;;;3.30;98.00;;;;;;5012083;28;20188;-80
2021/03/20 06:21:02;;;;;;;2.63;1.52;;;3.40;98.20;;;;;;5046333;28;20232;-79
2021/03/20 06:23:47;;;;;;;2.28;1.50;;;3.50;98.30;;;;;;5055328;28;20184;-82
2021/03/20 06:26:43;;;;;;;2.55;1.60;;;3.70;98.40;;;;;;5030611;28;20175;-79
2021/03/20 06:32:44;;;;;;;3.97;2.13;;;3.90;98.30;;;;;;5034444;28;20181;-79
2021/03/20 06:35:16;;;;;;;3.25;2.10;;;3.90;98.10;;;;;;5037476;28;20189;-79
2021/03/20 06:37:55;;;;;;;2.38;1.80;;;4.00;98.10;;;;;;5016767;28;20167;-80
2021/03/20 06:40:29;;;;;;;2.47;1.63;;;4.00;98.00;;;;;;5008436;28;20676;-80
2021/03/20 06:42:56;;;;;;;2.35;1.80;;;4.00;98.00;;;;;;5038353;28;20186;-80
2021/03/20 06:45:26;;;;;;;2.00;1.45;;;4.00;98.00;;;;;;5023086;28;20206;-80
2021/03/20 06:48:13;;;;;;;2.50;1.80;;;4.00;98.00;;;;;;5020021;28;20218;-80
2021/03/20 06:50:53;;;;;;;3.00;1.80;;;4.10;98.10;;;;;;5010629;28;20206;-79
2021/03/20 06:53:35;;;;;;;2.38;1.80;;;4.10;98.10;;;;;;5001265;28;20183;-79
2021/03/20 06:56:05;;;;;;;2.47;1.60;;;4.20;98.20;;;;;;4999377;28;20222;-79
2021/03/20 06:58:37;;;;;;;3.33;2.50;;;4.20;98.40;;;;;;5013569;28;20183;-78
2021/03/20 07:01:09;;;;;;;2.42;2.22;;;4.40;98.60;;;;;;4999037;28;20186;-80
2021/03/20 07:04:05;;;;;;;3.15;2.22;;;4.50;98.80;;;;;;4996908;28;20183;-80
2021/03/20 07:07:08;;;;;;;2.30;2.00;;;4.70;98.90;;;;;;5013626;28;20181;-80
2021/03/20 07:09:37;;;;;;;3.95;1.60;;;4.90;98.80;;;;;;5015809;28;20662;-80
2021/03/20 07:12:15;;;;;;;2.60;2.40;;;5.00;98.70;;;;;;5017317;28;20214;-80
2021/03/20 07:14:43;;;;;;;2.25;1.52;;;5.10;98.50;;;;;;5018007;28;20626;-80
2021/03/20 07:17:18;;;;;;;3.45;2.20;;;5.20;98.40;;;;;;5027457;28;20185;-80
2021/03/20 07:20:12;;;;;;;1.63;1.33;;;5.20;98.10;;;;;;5054647;28;20204;-80
2021/03/20 07:22:47;;;;;;;2.47;1.70;;;5.20;97.80;;;;;;5058591;28;20256;-81
2021/03/20 07:25:30;;;;;;;2.53;2.20;;;5.20;97.70;;;;;;5032922;28;20220;-80
2021/03/20 07:28:07;;;;;;;2.47;2.10;;;5.20;97.60;;;;;;5047361;28;20154;-80
2021/03/20 07:30:36;;;;;;;2.88;1.40;;;5.20;97.50;;;;;;5022535;28;20577;-80
2021/03/20 07:33:16;;;;;;;2.42;2.05;;;5.30;97.80;;;;;;5050211;28;20177;-80
2021/03/20 07:35:42;;;;;;;3.20;1.55;;;5.60;98.10;;;;;;5024572;28;20605;-80
2021/03/20 07:38:29;;;;;;;1.93;1.70;;;6.10;98.90;;;;;;5021410;28;20326;-80
2021/03/20 07:41:11;;;;;;;3.72;1.83;;;7.00;99.90;;;;;;5043295;28;20190;-81
2021/03/20 07:43:37;;;;;;;2.75;2.33;;;8.10;99.90;;;;;;5036338;28;20181;-80
2021/03/20 07:46:14;;;;;;;3.28;1.85;;;9.20;99.90;;;;;;5043075;28;20170;-79
2021/03/20 07:48:42;;;;;;;3.17;2.10;;;10.30;99.90;;;;;;5040311;28;20614;-80
2021/03/20 07:51:12;;;;;;;3.92;2.35;;;11.40;99.90;;;;;;5021192;28;20212;-79
2021/03/20 07:53:41;;;;;;;3.30;1.97;;;12.40;99.90;;;;;;5005952;28;20258;-80
2021/03/20 07:56:13;;;;;;;3.40;1.97;;;13.50;99.90;;;;;;5025348;28;20568;-79
2021/03/20 07:58:48;;;;;;;2.23;1.80;;;14.50;99.00;;;;;;4997964;28;20606;-80
2021/03/20 08:01:20;;;;;;;2.27;1.73;;;15.40;96.40;;;;;;4999260;28;20604;-80
2021/03/20 08:03:50;;;;;;;1.90;1.70;;;16.10;95.70;;;;;;4993838;28;20653;-79
2021/03/20 08:06:23;;;;;;;2.37;1.93;;;16.80;95.20;;;;;;4998071;28;20597;-79
2021/03/20 08:09:08;;;;;;;4.07;2.30;;;17.40;93.70;;;;;;4991469;28;20566;-79
2021/03/20 08:11:34;;;;;;;1.83;1.53;;;18.00;93.50;;;;;;4991680;28;21183;-78
2021/03/20 08:14:22;;;;;;;1.97;1.70;;;18.70;92.80;;;;;;4992273;28;20563;-78
2021/03/20 08:16:49;;;;;;;2.23;1.73;;;19.30;91.00;;;;;;4991589;28;20582;-78
2021/03/20 08:19:16;;;;;;;2.60;2.07;;;19.80;90.90;;;;;;4992388;28;20585;-78
2021/03/20 08:22:03;;;;;;;2.73;1.57;;;20.30;89.90;;;;;;4992390;28;20636;-78
2021/03/20 08:24:58;;;;;;;1.90;1.30;;;20.90;86.00;;;;;;4992824;28;20645;-78
2021/03/20 08:28:01;;;;;;;2.67;1.90;;;21.40;84.60;;;;;;4992572;28;20558;-79
2021/03/20 08:30:38;;;;;;;1.80;1.33;;;21.90;80.00;;;;;;4992678;28;20609;-78
2021/03/20 08:33:42;;;;;;;3.50;1.60;;;22.30;79.60;;;;;;4975166;28;20565;-78
2021/03/20 08:36:25;;;;;;;2.33;1.53;;;22.80;77.60;;;;;;4955060;28;20657;-78
2021/03/20 08:39:26;;;;;;;2.43;1.40;;;23.20;74.60;;;;;;4992535;28;20578;-78
2021/03/20 08:42:21;;;;;;;2.10;1.30;;;23.60;75.00;;;;;;4976408;28;20638;-79
2021/03/20 08:45:02;;;;;;;2.10;1.90;;;23.90;71.30;;;;;;4977562;28;20621;-78
2021/03/20 08:47:59;;;;;;;2.03;1.53;;;24.20;68.10;;;;;;4992924;28;20954;-78
2021/03/20 08:50:41;;;;;;;1.77;1.27;;;24.50;67.80;;;;;;4975664;28;20566;-79
2021/03/20 08:53:20;;;;;;;4.10;1.80;;;24.70;65.50;;;;;;4975609;28;20574;-78
2021/03/20 08:56:07;;;;;;;2.30;2.10;;;24.70;59.50;;;;;;4991796;28;21299;-77
2021/03/20 08:58:41;;;;;;;2.63;1.30;;;24.70;58.80;;;;;;4991858;28;20642;-77
2021/03/20 09:01:43;;;;;;;3.90;1.73;;;24.70;58.10;;;;;;4992181;28;20598;-78
2021/03/20 09:04:15;;;;;;;2.20;1.33;;;24.70;54.30;;;;;;4976136;28;20617;-77
2021/03/20 09:06:47;;;;;;;2.80;1.10;;;24.70;57.20;;;;;;4993522;28;20682;-77
2021/03/20 09:09:42;;;;;;;1.37;1.13;;;24.60;55.30;;;;;;4992008;28;20577;-78
2021/03/20 09:12:27;;;;;;;2.83;1.50;;;24.70;54.40;;;;;;4992446;28;21024;-78
2021/03/20 09:14:53;;;;;;;2.80;1.50;;;24.70;54.60;;;;;;4993628;28;20577;-77
2021/03/20 09:17:40;;;;;;;1.63;1.20;;;24.80;54.50;;;;;;4991949;28;20562;-77
2021/03/20 09:20:35;;;;;;;2.10;1.90;;;25.10;53.50;;;;;;4998569;28;21008;-77
2021/03/20 09:23:02;;;;;;;1.60;1.30;;;25.30;52.50;;;;;;4992709;28;20601;-77
2021/03/20 09:25:39;;;;;;;3.30;1.53;;;25.40;51.90;;;;;;4992872;28;20629;-78
2021/03/20 09:28:15;;;;;;;3.20;1.40;;;25.50;50.60;;;;;;4975001;28;21140;-77
2021/03/20 09:30:45;;;;;;;2.20;1.47;;;25.70;51.80;;;;;;4992600;28;20573;-77
2021/03/20 09:33:26;;;;;;;3.13;1.80;;;26.10;51.90;;;;;;4993262;28;20589;-77
2021/03/20 09:36:05;;;;;;;2.07;1.13;;;26.40;48.00;;;;;;4995676;28;20934;-79
2021/03/20 09:38:34;;;;;;;1.60;0.97;;;26.50;48.50;;;;;;4982846;28;20661;-78
2021/03/20 09:41:13;;;;;;;2.13;1.20;;;26.60;47.10;;;;;;4997812;28;20601;-77
2021/03/20 09:43:45;;;;;;;1.70;0.93;;;26.60;46.80;;;;;;4996882;28;20570;-76
2021/03/20 09:46:38;;;;;;;2.50;1.00;;;26.80;46.40;;;;;;4998670;28;20720;-77
2021/03/20 09:49:07;;;;;;;1.70;1.10;;;26.80;45.30;;;;;;4997265;28;20608;-78
2021/03/20 09:51:57;;;;;;;1.70;1.37;;;26.60;44.40;;;;;;4996211;28;20594;-78
2021/03/20 09:54:23;;;;;;;1.97;1.40;;;26.50;44.20;;;;;;4998051;28;20625;-78
2021/03/20 09:57:11;;;;;;;2.87;1.83;;;26.30;44.50;;;;;;5004860;28;20592;-78
2021/03/20 09:59:36;;;;;;;2.53;1.92;;;26.30;44.60;;;;;;5007387;28;21323;-78
2021/03/20 10:02:14;;;;;;;2.10;1.30;;;25.50;37.40;;;;;;5004669;28;20191;-77
2021/03/20 10:04:55;;;;;;;2.10;1.53;;;25.80;41.00;;;;;;5004830;28;20205;-79
2021/03/20 10:07:20;;;;;;;1.80;1.20;;;25.90;41.00;;;;;;5001996;28;21026;-79
2021/03/20 10:10:04;;;;;;;1.70;1.40;;;26.10;41.60;;;;;;5001331;28;20570;-78
2021/03/20 10:12:44;;;;;;;3.20;1.60;;;26.00;40.00;;;;;;4994727;28;21070;-76
2021/03/20 10:15:16;;;;;;;1.83;1.40;;;25.50;35.90;;;;;;4994961;28;20167;-76
2021/03/20 10:18:09;;;;;;;1.80;1.40;;;25.60;39.20;;;;;;4993565;28;20574;-76
2021/03/20 10:20:55;;;;;;;2.73;1.60;;;25.90;40.40;;;;;;4990312;28;20674;-76
2021/03/20 10:23:41;;;;;;;4.77;1.90;;;26.10;40.90;;;;;;4993778;28;20619;-76
2021/03/20 10:26:29;;;;;;;1.67;1.40;;;26.40;40.70;;;;;;4994762;28;20580;-76
2021/03/20 10:29:02;;;;;;;1.80;1.37;;;26.50;39.40;;;;;;4994761;28;21180;-76
2021/03/20 10:31:35;;;;;;;1.60;1.40;;;26.50;39.10;;;;;;4977400;28;20593;-76
2021/03/20 10:34:08;;;;;;;1.97;1.47;;;26.50;38.30;;;;;;4982942;28;20628;-77
2021/03/20 10:36:40;;;;;;;2.10;1.40;;;26.30;38.40;;;;;;4994261;28;20597;-76
2021/03/20 10:39:33;;;;;;;1.87;1.10;;;26.10;38.10;;;;;;4994538;28;20573;-76
2021/03/20 10:42:12;;;;;;;2.27;1.17;;;25.80;38.00;;;;;;4977168;28;20622;-76
2021/03/20 10:44:43;;;;;;;1.40;1.00;;;25.50;37.70;;;;;;4994628;28;20610;-77
2021/03/20 10:47:12;;;;;;;2.33;1.80;;;25.10;36.90;;;;;;4993653;28;20581;-76
2021/03/20 10:49:41;;;;;;;2.33;1.00;;;24.50;35.50;;;;;;4994330;28;20562;-76
2021/03/20 10:52:17;;;;;;;2.27;1.20;;;24.00;36.20;;;;;;4994080;28;20678;-76
2021/03/20 10:54:46;;;;;;;1.83;1.00;;;23.60;36.20;;;;;;4994306;28;20624;-75
2021/03/20 10:57:16;;;;;;;2.93;1.07;;;23.40;37.40;;;;;;4993725;28;20915;-77
2021/03/20 10:59:45;;;;;;;2.57;1.60;;;23.30;36.80;;;;;;4976878;28;20582;-77
2021/03/20 11:02:36;;;;;;;2.90;1.40;;;23.00;34.70;;;;;;4993933;28;20606;-77
2021/03/20 11:05:23;;;;;;;1.40;1.00;;;22.80;35.20;;;;;;4992810;28;20618;-78
2021/03/20 11:08:02;;;;;;;1.50;1.00;;;22.60;34.40;;;;;;4992712;28;20566;-76
2021/03/20 11:10:37;;;;;;;3.00;1.10;;;22.20;34.30;;;;;;4999304;28;20578;-77
2021/03/20 11:13:19;;;;;;;3.20;1.80;;;21.80;34.50;;;;;;4994265;28;20569;-77
2021/03/20 11:15:48;;;;;;;2.27;1.10;;;21.50;34.20;;;;;;4976638;28;20589;-78
2021/03/20 11:18:29;;;;;;;2.60;1.63;;;21.10;34.70;;;;;;4993494;28;21154;-76
2021/03/20 11:20:55;;;;;;;2.67;1.27;;;20.90;34.50;;;;;;4993871;28;20604;-76
2021/03/20 11:23:34;;;;;;;1.80;1.10;;;20.60;34.50;;;;;;4993769;28;20570;-77
2021/03/20 11:26:24;;;;;;;1.70;1.10;;;20.30;33.20;;;;;;4993743;28;20171;-78
2021/03/20 11:28:51;;;;;;;1.90;0.93;;;19.80;31.50;;;;;;4992591;28;20562;-76
2021/03/20 11:31:19;;;;;;;2.03;1.10;;;19.50;33.50;;;;;;4993477;28;20582;-76
2021/03/20 11:33:45;;;;;;;1.83;1.20;;;19.20;33.80;;;;;;4993521;28;20566;-76
2021/03/20 11:36:17;;;;;;;1.93;1.10;;;19.00;33.70;;;;;;4976285;28;20562;-76
2021/03/20 11:38:43;;;;;;;1.67;1.00;;;18.70;33.70;;;;;;4976013;28;20570;-76
2021/03/20 11:41:09;;;;;;;1.60;1.10;;;18.50;34.30;;;;;;4993325;28;20954;-76
2021/03/20 11:44:02;;;;;;;1.53;1.10;;;18.40;34.30;;;;;;4992140;28;20554;-78
2021/03/20 11:46:48;;;;;;;2.30;1.00;;;18.10;33.70;;;;;;4993132;28;20574;-76
2021/03/20 11:49:27;;;;;;;1.80;0.90;;;17.90;33.40;;;;;;4981815;28;20562;-77
2021/03/20 11:51:54;;;;;;;1.50;1.10;;;17.60;32.70;;;;;;4993230;28;20606;-77
2021/03/20 11:54:33;;;;;;;1.70;1.30;;;17.30;32.50;;;;;;4991864;28;20589;-77
2021/03/20 11:57:02;;;;;;;1.80;1.13;;;17.00;32.30;;;;;;4975324;28;20939;-77
2021/03/20 11:59:41;;;;;;;2.10;1.00;;;16.80;32.70;;;;;;4992391;28;20570;-78
2021/03/20 12:02:12;;;;;;;2.23;1.43;;;16.50;32.40;;;;;;4992914;28;20632;-78
2021/03/20 12:04:38;;;;;;;1.60;1.10;;;16.40;32.60;;;;;;4975530;28;20633;-77
2021/03/20 12:07:24;;;;;;;2.93;1.00;;;16.20;32.30;;;;;;4975153;28;20562;-77
2021/03/20 12:09:53;;;;;;;1.70;1.00;;;15.90;31.60;;;;;;4991776;28;20567;-78
2021/03/20 12:12:40;;;;;;;1.40;0.97;;;15.70;31.60;;;;;;4992605;28;20618;-77
2021/03/20 12:15:31;;;;;;;1.50;0.90;;;15.60;32.50;;;;;;4975518;28;20953;-78
2021/03/20 12:18:00;;;;;;;1.70;1.00;;;15.40;32.40;;;;;;4987484;28;20586;-76
2021/03/20 12:20:34;;;;;;;1.43;1.00;;;15.50;32.60;;;;;;4992753;28;20573;-75
2021/03/20 12:23:14;;;;;;;2.33;1.10;;;15.40;33.00;;;;;;4992908;28;20582;-75
2021/03/20 12:25:44;;;;;;;1.60;0.80;;;15.50;32.50;;;;;;4997184;28;20779;-75
2021/03/20 12:28:32;;;;;;;2.47;0.90;;;15.60;32.90;;;;;;4992500;28;20163;-76
2021/03/20 12:31:18;;;;;;;1.50;0.70;;;15.60;33.10;;;;;;4992610;28;20594;-75
2021/03/20 12:33:49;;;;;;;3.10;0.77;;;15.60;32.40;;;;;;4992627;28;20574;-76
2021/03/20 12:36:48;;;;;;;1.30;0.80;;;15.60;32.20;;;;;;4992033;28;20609;-76
2021/03/20 12:39:17;;;;;;;1.60;1.00;;;15.50;31.80;;;;;;4972960;28;20657;-76
2021/03/20 12:41:47;;;;;;;1.70;1.00;;;15.40;32.50;;;;;;4992448;28;20685;-76
2021/03/20 12:44:23;;;;;;;1.90;0.80;;;15.30;32.10;;;;;;4974758;28;20653;-76
2021/03/20 12:46:59;;;;;;;1.37;0.70;;;15.20;31.90;;;;;;4958491;28;20905;-76
2021/03/20 12:49:29;;;;;;;2.17;0.90;;;15.10;31.80;;;;;;4991120;28;21340;-76
2021/03/20 12:52:08;;;;;;;1.37;0.83;;;15.00;31.70;;;;;;4974840;28;20657;-76
2021/03/20 12:54:39;;;;;;;1.83;0.90;;;14.90;31.80;;;;;;4992223;28;20577;-76
2021/03/20 12:57:05;;;;;;;1.47;0.90;;;14.80;32.30;;;;;;4974576;28;20570;-76
2021/03/20 12:59:31;;;;;;;2.80;1.47;;;14.80;32.80;;;;;;4992175;28;20616;-76
2021/03/20 13:01:57;;;;;;;2.38;1.30;;;14.70;32.90;;;;;;4996084;28;20750;-76
2021/03/20 13:04:24;;;;;;;2.13;0.90;;;14.70;32.30;;;;;;4992143;28;20199;-76
2021/03/20 13:06:50;;;;;;;1.43;0.80;;;14.70;31.60;;;;;;4991647;28;20171;-76
2021/03/20 13:09:17;;;;;;;2.40;1.00;;;14.60;32.10;;;;;;4991314;28;20697;-76
2021/03/20 13:11:43;;;;;;;1.93;1.23;;;14.60;30.00;;;;;;4994230;28;20195;-76
2021/03/20 13:14:09;;;;;;;1.80;0.90;;;14.60;31.40;;;;;;4996179;28;20961;-76
2021/03/20 13:16:35;;;;;;;2.70;1.20;;;14.50;31.90;;;;;;4977895;28;20721;-76
2021/03/20 13:19:02;;;;;;;2.47;1.20;;;14.40;31.60;;;;;;4996086;28;20582;-76
2021/03/20 13:21:32;;;;;;;2.15;1.10;;;14.30;31.50;;;;;;4995640;28;20620;-76
2021/03/20 13:23:58;;;;;;;2.22;1.10;;;14.10;31.20;;;;;;4978542;28;20203;-76
2021/03/20 13:26:24;;;;;;;2.90;0.90;;;13.80;31.20;;;;;;4995600;28;20230;-76
2021/03/20 13:28:50;;;;;;;2.40;1.23;;;13.60;31.00;;;;;;4995701;28;20966;-76
2021/03/20 13:31:15;;;;;;;2.60;1.47;;;13.30;30.90;;;;;;4978332;28;20222;-77
2021/03/20 13:33:42;;;;;;;3.30;2.30;;;13.00;30.40;;;;;;4995587;28;20162;-75
2021/03/20 13:36:14;;;;;;;2.17;1.52;;;12.80;30.80;;;;;;4995627;28;20167;-76
2021/03/20 13:38:40;;;;;;;3.35;1.45;;;12.50;31.30;;;;;;4996949;28;20274;-76
2021/03/20 13:41:10;;;;;;;5.13;3.33;;;12.30;31.50;;;;;;4995020;28;20187;-77